CheckWX is a tool to help pilots better visualize weather data.  It is not intended as a substitute for an official pre-flight weather briefing.

21:00:39 UTC

KLCQ METAR
Lake City Gateway Airport
Lake City, Florida, USA
Current

26 mins ago

KLCQ 232035Z AUTO 24011KT 10SM SCT055 OVC090 28/16 A3005 RMK AO2
Observed
Feb-23 @ 20:35 UTC
Wind
  • 240° at 11 KTS
Visibility
10 SM
Flight Rules
VFR
Cloud Levels
  • Scattered at 5,500' AGL
  • Overcast at 9,000' AGL
Temperature
28°C / 82°F
Dewpoint
16°C / 61°F
Humidity
48%
Altimeter
30.05" Hg
Pressure
1017.62 hPa
Previous

46 mins ago

KLCQ 232015Z AUTO 24007G15KT 10SM SCT055 SCT080 OVC100 29/16 A3005 RMK AO2
Observed
Feb-23 @ 20:15 UTC
Wind
  • 240° at 7 KTS
  • Gusting to 15 KTS
Visibility
10 SM
Flight Rules
VFR
Cloud Levels
  • Scattered at 5,500' AGL
  • Scattered at 8,000' AGL
  • Overcast at 10,000' AGL
Temperature
29°C / 84°F
Dewpoint
16°C / 61°F
Humidity
45%
Altimeter
30.05" Hg
Pressure
1017.62 hPa
Previous

1 hour ago

KLCQ 231955Z AUTO 22006KT 10SM SCT055 SCT065 OVC095 28/16 A3005 RMK AO2
Observed
Feb-23 @ 19:55 UTC
Wind
  • 220° at 6 KTS
Visibility
10 SM
Flight Rules
VFR
Cloud Levels
  • Scattered at 5,500' AGL
  • Scattered at 6,500' AGL
  • Overcast at 9,500' AGL
Temperature
28°C / 82°F
Dewpoint
16°C / 61°F
Humidity
48%
Altimeter
30.05" Hg
Pressure
1017.62 hPa